^^
Station Historical Data
Daily Summary for January 9, 2017 Units:  Metric    English   Both
« Previous Day
Next Day »
Daily Weekly Monthly Yearly Custom
  High: Low: Average:
Temperature: 36.3 °C 19.7 °C 25.8 °C
Dew Point: 11.9 °C 4 °C 9.9 °C
Humidity: 58% 14% 40%
Wind Speed: 32km/h 0km/h 15.8km/h
Wind Gust: 40.2km/h - -
Wind- - SSW
Pressure: 1006.3 hPa 1001.2 hPa -
Precipitation: 0 mm    
Historical Graphs
 
 
Tabular Data for January 9, 2017
Time Temperature Dew Point Pressure Wind Wind Speed Wind Gust Humidity Rainfall Rate (Hourly) solar Conditions
00:08 23.6 °C 10.3 °C 1006 hPa SSW 17.7 km/h 25.7 km/h 43% 0 mm 0.0 W/m2
00:22 23.3 °C 10.4 °C 1006.3 hPa SSW 22.7 km/h 29 km/h 44% 0 mm 0.0 W/m2
00:29 23.1 °C 10.2 °C 1006.3 hPa SSW 16.3 km/h 27.4 km/h 44% 0 mm 0.0 W/m2
00:34 23 °C 10.1 °C 1006.3 hPa SSW 17.7 km/h 22.5 km/h 44% 0 mm 0.0 W/m2
00:39 22.9 °C 10.3 °C 1006.3 hPa SSW 17.7 km/h 25.7 km/h 45% 0 mm 0.0 W/m2
00:49 22.8 °C 10.2 °C 1006.3 hPa SSW 17.7 km/h 19.3 km/h 45% 0 mm 0.0 W/m2
00:54 22.7 °C 10.5 °C 1006.3 hPa SW 13 km/h 20.9 km/h 46% 0 mm 0.0 W/m2
00:59 22.6 °C 10.4 °C 1006.3 hPa SSW 16.3 km/h 22.5 km/h 46% 0 mm 0.0 W/m2
01:04 22.5 °C 10.3 °C 1006 hPa SW 16.3 km/h 19.3 km/h 46% 0 mm 0.0 W/m2
01:09 22.4 °C 10.5 °C 1006 hPa SW 11.1 km/h 17.7 km/h 47% 0 mm 0.0 W/m2
01:14 22.3 °C 10.4 °C 1006 hPa SW 17.7 km/h 17.7 km/h 47% 0 mm 0.0 W/m2
01:29 22.1 °C 10.6 °C 1006 hPa SW 14.3 km/h 19.3 km/h 48% 0 mm 0.0 W/m2
01:34 22 °C 10.5 °C 1006 hPa SW 11.1 km/h 19.3 km/h 48% 0 mm 0.0 W/m2
01:39 21.9 °C 10.7 °C 1006 hPa SW 16.3 km/h 16.3 km/h 49% 0 mm 0.0 W/m2
01:44 21.9 °C 10.7 °C 1006 hPa SW 13 km/h 16.1 km/h 49% 0 mm 0.0 W/m2
01:49 21.9 °C 10.7 °C 1006 hPa SW 13 km/h 16.1 km/h 49% 0 mm 0.0 W/m2
01:55 21.8 °C 10.6 °C 1005.6 hPa SW 11.1 km/h 14.5 km/h 49% 0 mm 0.0 W/m2
02:15 21.4 °C 10.8 °C 1005.6 hPa SW 14.3 km/h 17.7 km/h 51% 0 mm 0.0 W/m2
02:20 21.3 °C 10.8 °C 1005.6 hPa SW 13 km/h 14.5 km/h 51% 0 mm 0.0 W/m2
02:25 21.3 °C 10.8 °C 1005.6 hPa SSW 13 km/h 16.1 km/h 51% 0 mm 0.0 W/m2
02:30 21.2 °C 11 °C 1005.6 hPa SSW 14.3 km/h 22.5 km/h 52% 0 mm 0.0 W/m2
02:35 21.2 °C 11 °C 1005.6 hPa SSW 13 km/h 17.7 km/h 52% 0 mm 0.0 W/m2
02:40 21.1 °C 10.9 °C 1005.6 hPa SSW 17.7 km/h 17.7 km/h 52% 0 mm 0.0 W/m2
02:45 21.1 °C 10.9 °C 1005.3 hPa SSW 11.1 km/h 16.1 km/h 52% 0 mm 0.0 W/m2
02:50 21.1 °C 11.1 °C 1005.3 hPa SSW 16.3 km/h 17.7 km/h 53% 0 mm 0.0 W/m2
02:55 21 °C 11.1 °C 1005.3 hPa SSW 9.7 km/h 16.1 km/h 53% 0 mm 0.0 W/m2
03:00 21 °C 11.1 °C 1005.3 hPa SSW 16.3 km/h 17.7 km/h 53% 0 mm 0.0 W/m2
03:10 20.9 °C 11 °C 1005 hPa SSW 14.3 km/h 17.7 km/h 53% 0 mm 0.0 W/m2
03:15 20.9 °C 11 °C 1005 hPa SSW 11.1 km/h 14.5 km/h 53% 0 mm 0.0 W/m2
03:21 20.8 °C 10.9 °C 1005 hPa SSW 11.1 km/h 14.5 km/h 53% 0 mm 0.0 W/m2
03:26 20.8 °C 11.2 °C 1005 hPa SSW 13 km/h 17.7 km/h 54% 0 mm 0.0 W/m2
03:31 20.7 °C 11.1 °C 1005 hPa SSW 9.7 km/h 17.7 km/h 54% 0 mm 0.0 W/m2
03:36 20.7 °C 11.1 °C 1005 hPa SSW 13 km/h 14.5 km/h 54% 0 mm 0.0 W/m2
03:41 20.6 °C 11 °C 1005 hPa SSW 11.1 km/h 14.5 km/h 54% 0 mm 0.0 W/m2
03:46 20.6 °C 11 °C 1005 hPa SSW 9.7 km/h 12.9 km/h 54% 0 mm 0.0 W/m2
03:51 20.5 °C 11.1 °C 1005 hPa SSW 9.7 km/h 12.9 km/h 55% 0 mm 0.0 W/m2
03:56 20.4 °C 11.1 °C 1005 hPa SSW 9.7 km/h 12.9 km/h 55% 0 mm 0.0 W/m2
04:01 20.3 °C 11 °C 1005 hPa SSW 13 km/h 14.5 km/h 55% 0 mm 0.0 W/m2
04:06 20.3 °C 11 °C 1005 hPa SSW 11.1 km/h 14.5 km/h 55% 0 mm 0.0 W/m2
04:11 20.3 °C 11.2 °C 1005 hPa SSW 6.4 km/h 9.7 km/h 56% 0 mm 0.0 W/m2
04:16 20.3 °C 11.2 °C 1005 hPa SSW 6.4 km/h 9.7 km/h 56% 0 mm 0.0 W/m2
04:21 20.2 °C 11.1 °C 1005 hPa SSW 9.7 km/h 11.3 km/h 56% 0 mm 0.0 W/m2
04:26 20.2 °C 11.1 °C 1005 hPa SSW 13 km/h 14.5 km/h 56% 0 mm 0.0 W/m2
04:32 20.2 °C 11.1 °C 1005 hPa SSW 14.3 km/h 16.1 km/h 56% 0 mm 0.0 W/m2
04:37 20.2 °C 11.1 °C 1004.6 hPa SSW 13 km/h 17.7 km/h 56% 0 mm 0.0 W/m2
04:42 20.2 °C 11.1 °C 1004.6 hPa SSW 14.3 km/h 17.7 km/h 56% 0 mm 0.0 W/m2
04:47 20.2 °C 11.1 °C 1004.6 hPa SSW 14.3 km/h 19.3 km/h 56% 0 mm 0.0 W/m2
04:52 20.2 °C 11.1 °C 1004.6 hPa SSW 16.3 km/h 19.3 km/h 56% 0 mm 0.0 W/m2
04:57 20.1 °C 11 °C 1004.6 hPa SW 17.7 km/h 20.9 km/h 56% 0 mm 0.0 W/m2
05:07 20.1 °C 11 °C 1004.6 hPa SW 16.3 km/h 19.3 km/h 56% 0 mm 0.0 W/m2
05:12 20.1 °C 11 °C 1004.6 hPa SW 11.1 km/h 16.1 km/h 56% 0 mm 0.0 W/m2
05:27 20 °C 11 °C 1005 hPa SW 14.3 km/h 16.1 km/h 56% 0 mm 0.0 W/m2
05:47 19.8 °C 11 °C 1005.3 hPa SW 6.4 km/h 11.3 km/h 57% 0 mm 0.0 W/m2
05:52 19.8 °C 11 °C 1005.3 hPa SW 6.4 km/h 9.7 km/h 57% 0 mm 0.0 W/m2
05:58 19.7 °C 10.7 °C 1005.6 hPa SW 4.7 km/h 6.4 km/h 56% 0 mm 0.0 W/m2
06:03 19.7 °C 10.9 °C 1005.6 hPa SW 4.7 km/h 8 km/h 57% 0 mm 0.0 W/m2
06:08 19.7 °C 10.9 °C 1006 hPa Calm     57% 0 mm 7.0 W/m2
06:13 19.7 °C 10.9 °C 1006.3 hPa Calm     57% 0 mm 11.0 W/m2
06:18 19.7 °C 10.9 °C 1006.3 hPa Calm     57% 0 mm 14.0 W/m2
06:23 19.8 °C 11.3 °C 1006.3 hPa Calm     58% 0 mm 18.0 W/m2
06:28 19.9 °C 11.1 °C 1006.3 hPa Calm     57% 0 mm 21.0 W/m2
06:33 20 °C 11.2 °C 1006.3 hPa Calm     57% 0 mm 32.0 W/m2
06:38 20.1 °C 11 °C 1006.3 hPa Calm     56% 0 mm 44.0 W/m2
06:43 20.2 °C 11.1 °C 1006.3 hPa Calm     56% 0 mm 58.0 W/m2
06:49 20.4 °C 11.3 °C 1006.3 hPa Calm     56% 0 mm 74.0 W/m2
06:59 20.7 °C 11.1 °C 1006.3 hPa Calm   1.6 km/h 54% 0 mm 114.0 W/m2
07:04 20.9 °C 11.2 °C 1006.3 hPa SW 13 km/h 16.1 km/h 54% 0 mm 132.0 W/m2
07:09 21 °C 11.1 °C 1006.3 hPa SW 11.1 km/h 16.1 km/h 53% 0 mm 153.0 W/m2
07:22 21.4 °C 10.8 °C 1006 hPa SW 13 km/h 17.7 km/h 51% 0 mm 197.0 W/m2
07:33 21.7 °C 10.5 °C 1006 hPa SW 14.3 km/h 19.3 km/h 49% 0 mm 239.0 W/m2
07:40 22.1 °C 10.3 °C 1006 hPa SW 17.7 km/h 20.9 km/h 47% 0 mm 274.0 W/m2
07:50 22.6 °C 9.7 °C 1006 hPa SW 17.7 km/h 20.9 km/h 44% 0 mm 311.0 W/m2
07:55 22.8 °C 9.9 °C 1006 hPa SSW 19.5 km/h 19.5 km/h 44% 0 mm 325.0 W/m2
08:05 23.1 °C 10.2 °C 1006 hPa SW 17.7 km/h 22.5 km/h 44% 0 mm 367.0 W/m2
08:10 23.3 °C 10.4 °C 1006 hPa SW 14.3 km/h 19.3 km/h 44% 0 mm 385.0 W/m2
08:15 23.5 °C 10.2 °C 1006 hPa SW 17.7 km/h 19.3 km/h 43% 0 mm 401.0 W/m2
08:26 23.8 °C 9.8 °C 1005.6 hPa SSW 20.9 km/h 20.9 km/h 41% 0 mm 438.0 W/m2
08:37 23.9 °C 9.8 °C 1005.6 hPa SW 17.7 km/h 24.1 km/h 41% 0 mm 473.0 W/m2
08:48 24 °C 9.6 °C 1005.6 hPa SSW 20.9 km/h 25.7 km/h 40% 0 mm 508.0 W/m2
09:01 24.1 °C 8.9 °C 1005.6 hPa SW 19.5 km/h 22.5 km/h 38% 0 mm 543.0 W/m2
09:16 24.6 °C 9.3 °C 1005.6 hPa SW 17.7 km/h 20.9 km/h 38% 0 mm 591.0 W/m2
09:31 25.2 °C 9.1 °C 1005.6 hPa SW 20.9 km/h 22.5 km/h 36% 0 mm 645.0 W/m2
09:42 25.6 °C 9.4 °C 1005.6 hPa SW 13 km/h 19.3 km/h 36% 0 mm 686.0 W/m2
09:56 26.2 °C 9.5 °C 1005.6 hPa SW 17.7 km/h 20.9 km/h 35% 0 mm 728.0 W/m2
10:07 26.7 °C 9.5 °C 1005.6 hPa SW 16.3 km/h 22.5 km/h 34% 0 mm 756.0 W/m2
10:12 26.9 °C 9.3 °C 1005.6 hPa SW 16.3 km/h 19.3 km/h 33% 0 mm 770.0 W/m2
10:20 27.1 °C 9.4 °C 1005.6 hPa SW 16.3 km/h 24.1 km/h 33% 0 mm 782.0 W/m2
10:32 27.4 °C 9.2 °C 1005.6 hPa SW 17.7 km/h 19.3 km/h 32% 0 mm 807.0 W/m2
10:45 27.8 °C 9.1 °C 1005.6 hPa SW 16.3 km/h 20.9 km/h 31% 0 mm 840.0 W/m2
10:57 28.3 °C 9.1 °C 1005.6 hPa SW 20.9 km/h 22.5 km/h 30% 0 mm 863.0 W/m2
11:10 28.9 °C 9.1 °C 1005.6 hPa SW 19.5 km/h 25.7 km/h 29% 0 mm 895.0 W/m2
11:20 29.2 °C 9.3 °C 1005.6 hPa SW 17.7 km/h 25.7 km/h 29% 0 mm 921.0 W/m2
11:30 29.6 °C 9.2 °C 1005.6 hPa SW 17.7 km/h 24.1 km/h 28% 0 mm 916.0 W/m2
11:43 30.3 °C 9.2 °C 1005.3 hPa SW 16.3 km/h 24.1 km/h 27% 0 mm 949.0 W/m2
11:55 30.6 °C 8.9 °C 1005.3 hPa SW 22.7 km/h 29 km/h 26% 0 mm 969.0 W/m2
12:04 31.2 °C 8.8 °C 1005.3 hPa SW 17.7 km/h 24.1 km/h 25% 0 mm 976.0 W/m2
12:17 31.8 °C 8.7 °C 1004.6 hPa SW 14.3 km/h 24.1 km/h 24% 0 mm 995.0 W/m2
12:32 32.8 °C 8.9 °C 1004.6 hPa SW 14.3 km/h 24.1 km/h 23% 0 mm 1039.0 W/m2
12:37 32.8 °C 8.9 °C 1004.6 hPa SW 16.3 km/h 19.3 km/h 23% 0 mm 1076.0 W/m2
12:47 33.3 °C 8.7 °C 1004.6 hPa SW 19.5 km/h 22.5 km/h 22% 0 mm 875.0 W/m2
12:52 33.3 °C 8.7 °C 1004.3 hPa SW 20.9 km/h 22.5 km/h 22% 0 mm 925.0 W/m2
12:58 33.6 °C 8.3 °C 1004.3 hPa SW 14.3 km/h 20.9 km/h 21% 0 mm 1093.0 W/m2
13:03 33.8 °C 8.4 °C 1004.3 hPa SW 11.1 km/h 20.9 km/h 21% 0 mm 1032.0 W/m2
13:20 34.2 °C 8 °C 1003.9 hPa Calm   24.1 km/h 20% 0 mm 1009.0 W/m2
13:29 34.3 °C 8.1 °C 1003.6 hPa SSW 9.7 km/h 16.1 km/h 20% 0 mm 1016.0 W/m2
14:01 34.9 °C 7.9 °C 1003.3 hPa Calm   4.8 km/h 19% 0 mm 1007.0 W/m2
14:13 35.4 °C 6.6 °C 1002.9 hPa SSW 11.1 km/h 16.1 km/h 17% 0 mm 974.0 W/m2
14:28 35.6 °C 5.9 °C 1002.9 hPa SSW 16.3 km/h 16.3 km/h 16% 0 mm 949.0 W/m2
14:58 35.6 °C 7.6 °C 1002.6 hPa SW 24.1 km/h 32.2 km/h 18% 0 mm 1090.0 W/m2
15:59 36.3 °C 5.5 °C 1001.6 hPa South 32 km/h 37 km/h 15% 0 mm 744.0 W/m2
16:14 35.9 °C 5.2 °C 1001.6 hPa SSW 17.7 km/h 32.2 km/h 15% 0 mm 693.0 W/m2
16:38 35.6 °C 4 °C 1001.2 hPa South 32 km/h 33.8 km/h 14% 0 mm 617.0 W/m2
16:48 35.8 °C 5.1 °C 1001.2 hPa SSW 22.7 km/h 30.6 km/h 15% 0 mm 584.0 W/m2
16:56 35.8 °C 5.1 °C 1001.2 hPa SSW 25.9 km/h 33.8 km/h 15% 0 mm 550.0 W/m2
17:05 35.5 °C 6.7 °C 1001.2 hPa South 19.5 km/h 30.6 km/h 17% 0 mm 262.0 W/m2
17:20 35.2 °C 6.5 °C 1001.2 hPa South 19.5 km/h 29 km/h 17% 0 mm 471.0 W/m2
17:30 35 °C 6.3 °C 1001.2 hPa SSE 19.5 km/h 33.8 km/h 17% 0 mm 427.0 W/m2
17:35 34.8 °C 7 °C 1001.2 hPa South 17.7 km/h 30.6 km/h 18% 0 mm 350.0 W/m2
17:45 34.8 °C 7 °C 1001.6 hPa South 20.9 km/h 32.2 km/h 18% 0 mm 378.0 W/m2
17:50 34.7 °C 6.9 °C 1001.6 hPa South 22.7 km/h 32.2 km/h 18% 0 mm 364.0 W/m2
18:00 34.7 °C 6.9 °C 1001.6 hPa SSW 20.9 km/h 25.7 km/h 18% 0 mm 330.0 W/m2
18:05 34.7 °C 6.9 °C 1001.6 hPa South 25.9 km/h 40.2 km/h 18% 0 mm 311.0 W/m2
18:15 34.5 °C 7.5 °C 1001.6 hPa SSW 20.9 km/h 35.4 km/h 19% 0 mm 271.0 W/m2
18:21 34.2 °C 7.3 °C 1001.9 hPa South 24.1 km/h 32.2 km/h 19% 0 mm 260.0 W/m2
18:27 34.1 °C 7.2 °C 1001.9 hPa SSW 22.7 km/h 25.7 km/h 19% 0 mm 239.0 W/m2
18:36 33.6 °C 8.3 °C 1001.9 hPa SSW 20.9 km/h 32.2 km/h 21% 0 mm 192.0 W/m2
18:47 33.4 °C 8.1 °C 1001.9 hPa South 25.9 km/h 30.6 km/h 21% 0 mm 176.0 W/m2
18:58 33.1 °C 9.2 °C 1002.3 hPa SSW 22.7 km/h 29 km/h 23% 0 mm 120.0 W/m2
19:06 32.9 °C 9 °C 1002.3 hPa South 24.1 km/h 32.2 km/h 23% 0 mm 83.0 W/m2
19:16 32.7 °C 9.5 °C 1002.3 hPa SSW 25.9 km/h 29 km/h 24% 0 mm 53.0 W/m2
19:22 32.6 °C 9.4 °C 1002.3 hPa South 20.9 km/h 29 km/h 24% 0 mm 46.0 W/m2
19:27 32.4 °C 9.8 °C 1002.3 hPa SSW 22.7 km/h 24.1 km/h 25% 0 mm 35.0 W/m2
19:36 31.9 °C 10.6 °C 1002.6 hPa SW 24.1 km/h 29 km/h 27% 0 mm 19.0 W/m2
19:46 31.3 °C 10.6 °C 1002.6 hPa SSW 17.7 km/h 22.5 km/h 28% 0 mm 7.0 W/m2
19:56 30.9 °C 10.8 °C 1002.6 hPa SSW 20.9 km/h 24.1 km/h 29% 0 mm 0.0 W/m2
20:08 30.7 °C 11.1 °C 1002.6 hPa SW 19.5 km/h 25.7 km/h 30% 0 mm 0.0 W/m2
20:21 30.2 °C 11.7 °C 1002.9 hPa SSW 27.4 km/h 27.4 km/h 32% 0 mm 0.0 W/m2
20:51 28.9 °C 11.9 °C 1002.9 hPa SSW 20.9 km/h 27.4 km/h 35% 0 mm 0.0 W/m2
21:06 28.4 °C 11.5 °C 1003.3 hPa SSW 22.7 km/h 30.6 km/h 35% 0 mm 0.0 W/m2
21:21 27.9 °C 11.9 °C 1003.6 hPa SSW 20.9 km/h 22.5 km/h 37% 0 mm 0.0 W/m2
21:34 27.2 °C 11.6 °C 1003.6 hPa SSW 22.7 km/h 29 km/h 38% 0 mm 0.0 W/m2
21:42 26.7 °C 11.6 °C 1003.9 hPa SW 25.9 km/h 27.4 km/h 39% 0 mm 0.0 W/m2
21:52 26.4 °C 11.3 °C 1003.9 hPa SSW 22.7 km/h 30.6 km/h 39% 0 mm 0.0 W/m2
22:01 26.3 °C 10.8 °C 1004.3 hPa SSW 19.5 km/h 25.7 km/h 38% 0 mm 0.0 W/m2
22:06 26.2 °C 10.8 °C 1004.3 hPa SSW 17.7 km/h 25.7 km/h 38% 0 mm 0.0 W/m2
22:12 26.2 °C 11.2 °C 1004.6 hPa SSW 19.5 km/h 29 km/h 39% 0 mm 0.0 W/m2
22:17 26.1 °C 11.1 °C 1004.6 hPa SSW 22.7 km/h 27.4 km/h 39% 0 mm 0.0 W/m2
22:22 26 °C 11 °C 1004.6 hPa SSW 30.6 km/h 30.6 km/h 39% 0 mm 0.0 W/m2
22:27 25.9 °C 10.9 °C 1004.6 hPa SSW 20.9 km/h 30.6 km/h 39% 0 mm 0.0 W/m2
22:32 25.9 °C 11.3 °C 1004.6 hPa South 19.5 km/h 25.7 km/h 40% 0 mm 0.0 W/m2
22:42 25.8 °C 10.4 °C 1005 hPa SSW 14.3 km/h 22.5 km/h 38% 0 mm 0.0 W/m2
22:52 25.5 °C 10.5 °C 1005.3 hPa SW 19.5 km/h 20.9 km/h 39% 0 mm 0.0 W/m2
22:58 25.3 °C 10.3 °C 1005.3 hPa SSW 19.5 km/h 20.9 km/h 39% 0 mm 0.0 W/m2
23:07 25.2 °C 10.6 °C 1005.3 hPa SSW 13 km/h 20.9 km/h 40% 0 mm 0.0 W/m2
23:12 25.2 °C 10.6 °C 1005.3 hPa SW 17.7 km/h 20.9 km/h 40% 0 mm 0.0 W/m2
23:22 25.1 °C 10.9 °C 1005.3 hPa SSW 20.9 km/h 24.1 km/h 41% 0 mm 0.0 W/m2
23:34 24.9 °C 10.7 °C 1005.3 hPa South 17.7 km/h 25.7 km/h 41% 0 mm 0.0 W/m2
23:43 24.8 °C 11 °C 1005.6 hPa South 25.9 km/h 27.4 km/h 42% 0 mm 0.0 W/m2
23:48 24.8 °C 11 °C 1005.3 hPa SSW 14.3 km/h 27.4 km/h 42% 0 mm 0.0 W/m2
23:54 24.7 °C 10.9 °C 1005.3 hPa SSW 14.3 km/h 24.1 km/h 42% 0 mm 0.0 W/m2
Canyon Roadhouse, Fishriver Canyon, Namibia
Compliments of Weather Underground - 2.5 mb